This is the latest recevied weather packets stored in our database for station/object YO4FZV-11. If no packets are shown the sender has not sent any weather packets the latest 1 day(s).
| Time | Temp. | Humidity | Pressure | Rain* | Wind** | Luminosity | Snow |
|---|---|---|---|---|---|---|---|
| 1778091777 | 11.67° C | 87% | 1014.3 hPa | 0 mm | - | - | - |
| 1778084577 | 15° C | 75% | 1013.7 hPa | 0 mm | - | - | - |
| 1778083377 | 15.56° C | 73% | 1013.7 hPa | 0 mm | - | - | - |
| 1778082477 | 15.56° C | 72% | 1013.7 hPa | 0 mm | - | - | - |
| 1778082177 | 15.56° C | 71% | 1013.8 hPa | 0 mm | - | - | - |
| 1778081577 | 15.56° C | 72% | 1013.7 hPa | 0 mm | - | - | - |
| 1778080977 | 16.11° C | 71% | 1013.8 hPa | 0 mm | - | - | - |
| 1778080677 | 16.11° C | 72% | 1013.9 hPa | 0 mm | - | - | - |
| 1778080377 | 16.11° C | 71% | 1013.9 hPa | 0 mm | - | - | - |
| 1778080077 | 16.11° C | 71% | 1013.9 hPa | 0 mm | - | - | - |
| 1778079777 | 16.11° C | 71% | 1013.9 hPa | 0 mm | - | - | - |
| 1778079477 | 16.11° C | 71% | 1014 hPa | 0 mm | - | - | - |
| 1778079177 | 16.11° C | 69% | 1013.9 hPa | 0 mm | - | - | - |
| 1778078877 | 16.11° C | 69% | 1013.9 hPa | 0 mm | - | - | - |
| 1778078577 | 16.11° C | 68% | 1014 hPa | 0 mm | - | - | - |
| 1778078277 | 16.67° C | 68% | 1013.9 hPa | 0 mm | - | - | - |
| 1778077977 | 16.67° C | 68% | 1013.9 hPa | 0 mm | - | - | - |
| 1778077677 | 16.67° C | 67% | 1013.9 hPa | 0 mm | - | - | - |
| 1778077377 | 16.67° C | 68% | 1013.9 hPa | 0 mm | - | - | - |
| 1778077077 | 16.67° C | 69% | 1013.9 hPa | 0 mm | - | - | - |
| 1778076777 | 17.22° C | 69% | 1014 hPa | 0 mm | - | - | - |
| 1778076477 | 17.22° C | 68% | 1014.1 hPa | 0 mm | - | - | - |
| 1778075877 | 17.22° C | 67% | 1014 hPa | 0 mm | - | - | - |
| 1778075577 | 17.22° C | 67% | 1014 hPa | 0 mm | - | - | - |
| 1778075277 | 17.22° C | 67% | 1014.1 hPa | 0 mm | - | - | - |
* Rain latest hour (hover to see other rain measurements)
** Current wind speed in m/s (hover to see current wind gust speed)